createdAt,value
2023-05-12T00:02:37.744Z,100412.53
2023-05-12T00:06:50.204Z,100421.06
2023-05-12T00:11:03.168Z,100420.06
2023-05-12T00:15:15.783Z,100415.88
2023-05-12T00:19:28.317Z,100410.28
2023-05-12T00:23:40.872Z,100412.91
2023-05-12T00:27:53.405Z,100414.84
2023-05-12T00:32:07.289Z,100422.47
2023-05-12T00:36:20.164Z,100420.66
2023-05-12T00:40:32.732Z,100415.00
2023-05-12T00:44:45.869Z,100416.31
2023-05-12T00:48:59.312Z,100417.50
2023-05-12T00:53:13.375Z,100408.75
2023-05-12T00:57:28.291Z,100430.72
2023-05-12T01:01:41.377Z,100431.28
2023-05-12T01:06:15.846Z,100416.69
2023-05-12T01:10:28.312Z,100418.75
2023-05-12T01:14:41.808Z,100411.97
2023-05-12T01:18:56.497Z,100420.03
2023-05-12T01:23:09.893Z,100415.91
2023-05-12T01:27:26.106Z,100402.50
2023-05-12T01:31:39.612Z,100409.72
2023-05-12T01:35:52.079Z,100407.78
2023-05-12T01:40:05.322Z,100398.25
2023-05-12T01:44:18.062Z,100405.66
2023-05-12T01:48:30.820Z,100403.53
2023-05-12T01:52:45.986Z,100402.13
2023-05-12T01:57:01.129Z,100402.34
2023-05-12T02:01:13.744Z,100406.88
2023-05-12T02:05:26.688Z,100401.69
2023-05-12T02:09:39.504Z,100414.91
2023-05-12T02:13:52.554Z,100409.72
2023-05-12T02:18:05.250Z,100412.41
2023-05-12T02:22:17.882Z,100395.41
2023-05-12T02:26:30.347Z,100399.28
2023-05-12T02:30:51.105Z,100402.47
2023-05-12T02:35:03.510Z,100392.53
2023-05-12T02:39:16.141Z,100408.41
2023-05-12T02:43:28.525Z,100410.97
2023-05-12T02:47:41.059Z,100406.78
2023-05-12T02:51:55.230Z,100402.53
2023-05-12T02:56:08.433Z,100400.94
2023-05-12T03:00:21.029Z,100399.47
2023-05-12T03:04:34.127Z,100398.59
2023-05-12T03:08:47.278Z,100394.72
2023-05-12T03:12:59.780Z,100394.84
2023-05-12T03:17:12.365Z,100408.34
2023-05-12T03:21:24.871Z,100410.06
2023-05-12T03:25:37.229Z,100409.13
2023-05-12T03:29:49.716Z,100410.78
2023-05-12T03:34:02.392Z,100411.09
2023-05-12T03:38:14.832Z,100414.06
2023-05-12T03:42:27.233Z,100410.53
2023-05-12T03:46:39.675Z,100415.91
2023-05-12T03:50:52.163Z,100420.00
2023-05-12T03:55:07.252Z,100409.13
2023-05-12T03:59:19.777Z,100404.03
2023-05-12T04:03:32.375Z,100415.38
2023-05-12T04:07:44.772Z,100407.19
2023-05-12T04:11:57.256Z,100407.38
2023-05-12T04:16:10.166Z,100410.84
2023-05-12T04:20:23.317Z,100413.25
2023-05-12T04:24:37.915Z,100416.66
2023-05-12T04:28:50.604Z,100420.06
2023-05-12T04:33:03.486Z,100430.41
2023-05-12T04:37:16.538Z,100425.63
2023-05-12T04:41:30.154Z,100411.22
2023-05-12T04:45:44.405Z,100414.50
2023-05-12T04:50:00.157Z,100416.47
2023-05-12T04:54:12.800Z,100415.47
2023-05-12T04:58:25.749Z,100408.53
2023-05-12T05:02:38.688Z,100417.25
2023-05-12T05:06:51.346Z,100411.47
2023-05-12T05:11:04.691Z,100407.28
2023-05-12T05:15:17.896Z,100422.16
2023-05-12T05:23:48.285Z,100417.59
2023-05-12T05:28:01.499Z,100413.50
2023-05-12T05:32:14.240Z,100414.38
2023-05-12T05:36:27.345Z,100404.06
2023-05-12T05:40:52.109Z,100416.69
2023-05-12T05:45:06.786Z,100422.03
2023-05-12T05:49:20.383Z,100430.66
2023-05-12T05:53:33.592Z,100433.63
2023-05-12T05:57:46.780Z,100430.13
2023-05-12T06:01:59.258Z,100426.50
2023-05-12T06:06:11.703Z,100417.75
2023-05-12T06:10:24.878Z,100433.31
2023-05-12T06:14:37.281Z,100427.38
2023-05-12T06:18:49.728Z,100438.28
2023-05-12T06:23:02.405Z,100437.25
2023-05-12T06:27:14.865Z,100436.91
2023-05-12T06:31:27.294Z,100437.72
2023-05-12T06:35:40.125Z,100433.34
2023-05-12T06:39:52.589Z,100444.19
2023-05-12T06:44:06.584Z,100452.00
2023-05-12T06:48:18.873Z,100449.28
2023-05-12T06:52:31.783Z,100457.50
2023-05-12T06:56:44.510Z,100443.81
2023-05-12T07:00:57.815Z,100442.03
2023-05-12T07:05:10.455Z,100447.09
2023-05-12T07:09:23.255Z,100450.22
2023-05-12T07:13:35.817Z,100449.06
2023-05-12T07:17:48.452Z,100447.28
2023-05-12T07:22:00.900Z,100449.41
2023-05-12T07:26:13.469Z,100445.69
2023-05-12T07:30:26.019Z,100456.78
2023-05-12T07:34:39.133Z,100459.53
2023-05-12T07:38:51.678Z,100454.19
2023-05-12T07:43:04.095Z,100454.94
2023-05-12T07:47:16.482Z,100447.28
2023-05-12T07:51:29.396Z,100458.00
2023-05-12T07:55:43.497Z,100457.09
2023-05-12T07:59:56.281Z,100456.44
2023-05-12T08:04:11.283Z,100461.72
2023-05-12T08:08:23.682Z,100458.34
2023-05-12T08:12:36.214Z,100464.31
2023-05-12T08:16:48.797Z,100457.81
2023-05-12T08:21:01.313Z,100462.41
2023-05-12T08:25:13.850Z,100462.00
2023-05-12T08:29:26.194Z,100469.25
2023-05-12T08:33:38.708Z,100467.06
2023-05-12T08:37:51.215Z,100467.81
2023-05-12T08:42:27.858Z,100471.84
2023-05-12T08:46:41.090Z,100469.69
2023-05-12T08:50:55.034Z,100467.38
2023-05-12T08:55:09.724Z,100467.53
2023-05-12T08:59:23.952Z,100458.03
2023-05-12T09:03:36.573Z,100462.69
2023-05-12T09:07:50.729Z,100468.97
2023-05-12T09:12:04.343Z,100470.72
2023-05-12T09:16:23.570Z,100475.13
2023-05-12T09:20:36.105Z,100466.16
2023-05-12T09:24:48.701Z,100466.19
2023-05-12T09:29:08.708Z,100467.81
2023-05-12T09:33:23.287Z,100468.84
2023-05-12T09:37:35.845Z,100474.44
2023-05-12T09:41:48.520Z,100485.72
2023-05-12T09:46:06.408Z,100484.66
2023-05-12T09:50:19.660Z,100484.84
2023-05-12T09:54:33.906Z,100479.00
2023-05-12T09:58:48.545Z,100471.47
2023-05-12T10:03:01.832Z,100468.56
2023-05-12T10:07:17.097Z,100472.91
2023-05-12T10:11:30.206Z,100476.50
2023-05-12T10:15:44.397Z,100460.75
2023-05-12T10:19:57.671Z,100457.22
2023-05-12T10:24:10.082Z,100444.94
2023-05-12T10:28:22.849Z,100447.78
2023-05-12T10:32:35.502Z,100453.31
2023-05-12T10:36:50.537Z,100456.13
2023-05-12T10:41:06.708Z,100456.75
2023-05-12T10:45:20.708Z,100439.66
2023-05-12T10:49:36.821Z,100450.25
2023-05-12T10:53:54.891Z,100446.53
2023-05-12T10:58:11.614Z,100450.59
2023-05-12T11:02:32.063Z,100444.16
2023-05-12T11:06:46.764Z,100467.91
2023-05-12T11:10:59.742Z,100475.66
2023-05-12T11:15:12.770Z,100481.00
2023-05-12T11:19:25.154Z,100491.84
2023-05-12T11:23:37.975Z,100498.69
2023-05-12T11:27:50.894Z,100497.91
2023-05-12T11:32:03.455Z,100504.97
2023-05-12T11:36:21.773Z,100494.94
2023-05-12T11:40:41.371Z,100498.06
2023-05-12T11:44:55.704Z,100504.84
2023-05-12T11:49:12.973Z,100510.22
2023-05-12T11:53:26.085Z,100506.53
2023-05-12T11:57:40.050Z,100514.63
2023-05-12T12:01:52.562Z,100496.91
2023-05-12T12:06:11.029Z,100493.59
2023-05-12T12:10:23.510Z,100496.09
2023-05-12T12:14:38.297Z,100500.41
2023-05-12T12:18:50.921Z,100493.25
2023-05-12T12:23:03.410Z,100510.03
2023-05-12T12:27:16.110Z,100501.66
2023-05-12T12:31:28.721Z,100504.72
2023-05-12T12:35:41.727Z,100497.81
2023-05-12T12:39:54.649Z,100492.00
2023-05-12T12:44:07.420Z,100492.88
2023-05-12T12:48:21.399Z,100499.91
2023-05-12T12:52:34.098Z,100490.13
2023-05-12T12:56:46.614Z,100479.53
2023-05-12T13:00:59.443Z,100471.13
2023-05-12T13:05:12.060Z,100475.91
2023-05-12T13:09:24.740Z,100481.34
2023-05-12T13:13:38.471Z,100477.69
2023-05-12T13:17:51.030Z,100478.44
2023-05-12T13:22:03.591Z,100464.22
2023-05-12T13:26:16.121Z,100460.50
2023-05-12T13:30:28.531Z,100460.44
2023-05-12T13:34:41.115Z,100462.63
2023-05-12T13:38:53.471Z,100461.50
2023-05-12T13:43:05.905Z,100455.63
2023-05-12T13:47:19.300Z,100460.41
2023-05-12T13:51:32.720Z,100462.03
2023-05-12T13:55:45.286Z,100467.81
2023-05-12T13:59:58.849Z,100482.31
2023-05-12T14:04:12.185Z,100480.88
2023-05-12T14:08:24.528Z,100476.59
2023-05-12T14:12:41.534Z,100468.63
2023-05-12T14:16:54.411Z,100467.78
2023-05-12T14:21:07.068Z,100474.22
2023-05-12T14:25:19.776Z,100478.72
2023-05-12T14:29:32.332Z,100477.09
2023-05-12T14:33:44.785Z,100484.03
2023-05-12T14:37:57.392Z,100488.09
2023-05-12T14:42:09.823Z,100495.00
2023-05-12T14:46:22.481Z,100488.50
2023-05-12T14:50:35.050Z,100494.31
2023-05-12T14:54:47.472Z,100505.66
2023-05-12T14:59:00.390Z,100509.75
2023-05-12T15:03:13.844Z,100509.91
2023-05-12T15:07:26.396Z,100513.63
2023-05-12T15:11:38.875Z,100512.47
2023-05-12T15:15:55.076Z,100518.06
2023-05-12T15:20:10.303Z,100517.69
2023-05-12T15:24:22.675Z,100522.44
2023-05-12T15:28:35.170Z,100523.50
2023-05-12T15:32:47.752Z,100526.16
2023-05-12T15:37:00.290Z,100527.66
2023-05-12T15:41:13.005Z,100525.13
2023-05-12T15:45:25.655Z,100525.22
2023-05-12T15:49:37.963Z,100529.19
2023-05-12T15:53:53.692Z,100533.53
2023-05-12T15:58:08.485Z,100532.81
2023-05-12T16:02:20.918Z,100540.03
2023-05-12T16:06:33.454Z,100545.56
2023-05-12T16:10:45.971Z,100535.81
2023-05-12T16:14:58.394Z,100542.09
2023-05-12T16:19:11.017Z,100548.38
2023-05-12T16:23:23.514Z,100552.69
2023-05-12T16:27:36.886Z,100558.91
2023-05-12T16:31:49.557Z,100557.34
2023-05-12T16:36:02.194Z,100559.16
2023-05-12T16:40:15.579Z,100575.31
2023-05-12T16:44:28.209Z,100580.69
2023-05-12T16:48:40.540Z,100575.75
2023-05-12T16:52:54.151Z,100583.28
2023-05-12T16:57:06.827Z,100587.22
2023-05-12T17:01:19.611Z,100590.63
2023-05-12T17:05:32.128Z,100602.03
2023-05-12T17:09:44.436Z,100600.53
2023-05-12T17:13:56.859Z,100599.66
2023-05-12T17:18:09.593Z,100607.47
2023-05-12T17:22:22.360Z,100613.38
2023-05-12T17:26:35.328Z,100611.25
2023-05-12T17:30:48.321Z,100613.41
2023-05-12T17:35:00.884Z,100613.91
2023-05-12T17:39:16.252Z,100624.78
2023-05-12T17:43:30.052Z,100619.09
2023-05-12T17:47:43.622Z,100629.91
2023-05-12T17:51:56.459Z,100630.81
2023-05-12T17:56:09.010Z,100626.78
2023-05-12T18:00:22.042Z,100632.03
2023-05-12T18:04:35.121Z,100640.59
2023-05-12T18:08:47.581Z,100633.78
2023-05-12T18:13:00.040Z,100636.84
2023-05-12T18:17:12.430Z,100637.28
2023-05-12T18:21:25.439Z,100639.00
2023-05-12T18:25:38.009Z,100638.34
2023-05-12T18:29:50.491Z,100641.84
2023-05-12T18:34:02.968Z,100643.34
2023-05-12T18:38:15.379Z,100656.91
2023-05-12T18:42:29.247Z,100661.47
2023-05-12T18:46:41.725Z,100667.84
2023-05-12T18:50:57.264Z,100668.50
2023-05-12T18:55:09.962Z,100679.28
2023-05-12T18:59:22.391Z,100687.56
2023-05-12T19:03:34.826Z,100684.91
2023-05-12T19:07:47.088Z,100689.69
2023-05-12T19:11:59.898Z,100686.56
2023-05-12T19:16:12.509Z,100688.44
2023-05-12T19:20:24.996Z,100702.47
2023-05-12T19:24:38.244Z,100701.59
2023-05-12T19:28:50.752Z,100706.34
2023-05-12T19:33:03.266Z,100702.97
2023-05-12T19:37:15.755Z,100708.31
2023-05-12T19:41:30.268Z,100713.31
2023-05-12T19:45:42.905Z,100708.06
2023-05-12T19:49:55.598Z,100710.78
2023-05-12T19:54:10.326Z,100707.88
2023-05-12T19:58:22.914Z,100704.03
2023-05-12T20:02:35.514Z,100708.91
2023-05-12T20:06:47.928Z,100717.28
2023-05-12T20:11:00.333Z,100716.13
2023-05-12T20:15:12.805Z,100721.59
2023-05-12T20:19:25.216Z,100719.13
2023-05-12T20:23:38.251Z,100729.22
2023-05-12T20:27:50.725Z,100729.09
2023-05-12T20:32:03.243Z,100730.34
2023-05-12T20:36:15.713Z,100734.41
2023-05-12T20:40:28.106Z,100729.69
2023-05-12T20:44:40.989Z,100731.13
2023-05-12T20:48:53.353Z,100727.41
2023-05-12T20:53:05.930Z,100728.50
2023-05-12T20:57:18.425Z,100722.44
2023-05-12T21:01:31.237Z,100718.25
2023-05-12T21:05:47.962Z,100713.03
2023-05-12T21:10:00.894Z,100705.19
2023-05-12T21:14:13.416Z,100703.38
2023-05-12T21:18:26.147Z,100715.91
2023-05-12T21:22:40.928Z,100713.78
2023-05-12T21:26:53.344Z,100721.25
2023-05-12T21:31:05.915Z,100720.03
2023-05-12T21:35:19.058Z,100726.91
2023-05-12T21:39:31.529Z,100734.25
2023-05-12T21:43:43.931Z,100729.84
2023-05-12T21:47:56.469Z,100717.72
2023-05-12T21:52:09.659Z,100722.38
2023-05-12T21:56:23.340Z,100735.81
2023-05-12T22:00:35.760Z,100738.50
2023-05-12T22:04:48.234Z,100739.34
2023-05-12T22:09:00.905Z,100751.72
2023-05-12T22:13:13.341Z,100760.66
2023-05-12T22:17:25.811Z,100764.38
2023-05-12T22:21:41.332Z,100764.41
2023-05-12T22:25:53.875Z,100754.72
2023-05-12T22:30:06.998Z,100760.22
2023-05-12T22:34:19.544Z,100758.41
2023-05-12T22:38:31.995Z,100761.81
2023-05-12T22:42:44.448Z,100763.00
2023-05-12T22:46:56.832Z,100754.06
2023-05-12T22:51:09.796Z,100754.94
2023-05-12T22:55:22.463Z,100744.22
2023-05-12T22:59:34.855Z,100738.06
2023-05-12T23:03:47.379Z,100729.44
2023-05-12T23:07:59.881Z,100728.59
2023-05-12T23:12:12.511Z,100721.44
2023-05-12T23:16:25.942Z,100712.34
2023-05-12T23:20:38.446Z,100706.97
2023-05-12T23:24:52.443Z,100707.88
2023-05-12T23:29:04.872Z,100698.81
2023-05-12T23:33:17.660Z,100692.66
2023-05-12T23:37:30.093Z,100693.09
2023-05-12T23:41:42.519Z,100701.28
2023-05-12T23:45:55.033Z,100693.38
2023-05-12T23:50:08.130Z,100694.84
2023-05-12T23:54:20.618Z,100688.94
2023-05-12T23:58:33.014Z,100682.66
